Observations for MIDDLE WALLOP, United Kingdom (EGVP)

EGVP 221350Z 01011KT CAVOK 13/03 Q1037 BLU NOSIG
EGVP 221250Z 02011KT 9999 FEW032 13/04 Q1037 BLU NOSIG  
EGVP 221150Z 02009KT 9999 FEW028 12/05 Q1037 BLU NOSIG  
EGVP 221050Z 01012KT 9999 FEW030 12/05 Q1038 BLU NOSIG  
EGVP 220950Z 01010KT 9999 FEW024 11/05 Q1037 BLU NOSIG  
EGVP 220850Z 36009KT CAVOK 09/05 Q1037 BLU NOSIG
EGVP 220750Z 35006KT CAVOK 07/03 Q1037 BLU NOSIG
EGVP 220650Z 36006KT CAVOK 07/03 Q1036 BLU NOSIG
EGVP 220550Z 36006KT CAVOK 07/03 Q1035 BLU  
EGVP 220450Z 02008KT CAVOK 08/03 Q1034 BLU  
EGVP 220350Z AUTO 01010KT 9999 // SCT240/// 08/03 Q1034 
EGVP 220250Z AUTO 01013KT 9999 // BKN230/// 09/04 Q1033 
EGVP 220150Z AUTO 36014KT 9999 // FEW060/// 10/04 Q1033 
EGVP 220050Z AUTO 36015G27KT 9999 // FEW050/// BKN090/// 11/05 Q1032
EGVP 212350Z AUTO 36011KT 9999 // SCT048/// 11/07 Q1032 
EGVP 212250Z AUTO 36012KT 9999 // FEW035/// BKN045/// 12/07 Q1031   
EGVP 212150Z AUTO 01014KT 9999 // BKN039/// BKN045/// 13/08 Q1030   
EGVP 212050Z AUTO 35015KT 9999 // BKN010/// BKN025/// 13/11 Q1029   
EGVP 211950Z AUTO 31005KT 9999 // BKN025/// BKN047/// 13/11 Q1029   
EGVP 211850Z AUTO 31006KT 9999 // BKN025/// 14/11 Q1028 
EGVP 211750Z AUTO 30005KT 9999 // FEW025/// 14/11 Q1028 
EGVP 211650Z AUTO 31005KT 9999 // NCD 15/11 Q1027   
EGVP 211550Z AUTO 29007KT 9999 // NCD 17/11 Q1026   
EGVP 211450Z AUTO 27006KT 9999 // NCD 18/11 Q1026   
EGVP 211350Z AUTO 23006KT 9999 // NCD 18/11 Q1027